sensor_id;sensor_type;location;lat;lon;timestamp;P1;durP1;ratioP1;P2;durP2;ratioP2
13847;SDS011;6994;49.752;6.094;2023-04-28T00:02:15;7.50;;;4.70;;
13847;SDS011;6994;49.752;6.094;2023-04-28T00:04:43;8.65;;;4.65;;
13847;SDS011;6994;49.752;6.094;2023-04-28T00:07:11;7.72;;;4.22;;
13847;SDS011;6994;49.752;6.094;2023-04-28T00:09:39;4.90;;;4.45;;
13847;SDS011;6994;49.752;6.094;2023-04-28T00:12:07;5.78;;;4.68;;
13847;SDS011;6994;49.752;6.094;2023-04-28T00:14:34;7.15;;;4.50;;
13847;SDS011;6994;49.752;6.094;2023-04-28T00:17:01;4.60;;;4.20;;
13847;SDS011;6994;49.752;6.094;2023-04-28T00:19:28;6.55;;;5.87;;
13847;SDS011;6994;49.752;6.094;2023-04-28T00:21:55;5.45;;;4.50;;
13847;SDS011;6994;49.752;6.094;2023-04-28T00:24:23;6.80;;;5.37;;
13847;SDS011;6994;49.752;6.094;2023-04-28T00:26:50;7.72;;;4.93;;
13847;SDS011;6994;49.752;6.094;2023-04-28T00:29:17;5.85;;;4.82;;
13847;SDS011;6994;49.752;6.094;2023-04-28T00:31:44;6.00;;;4.40;;
13847;SDS011;6994;49.752;6.094;2023-04-28T00:34:11;15.88;;;4.80;;
13847;SDS011;6994;49.752;6.094;2023-04-28T00:36:39;5.65;;;3.90;;
13847;SDS011;6994;49.752;6.094;2023-04-28T00:39:06;6.45;;;4.12;;
13847;SDS011;6994;49.752;6.094;2023-04-28T00:41:34;5.35;;;4.30;;
13847;SDS011;6994;49.752;6.094;2023-04-28T00:44:01;5.70;;;4.55;;
13847;SDS011;6994;49.752;6.094;2023-04-28T00:46:29;9.98;;;6.93;;
13847;SDS011;6994;49.752;6.094;2023-04-28T00:48:56;5.80;;;5.20;;
13847;SDS011;6994;49.752;6.094;2023-04-28T00:51:23;6.07;;;5.50;;
13847;SDS011;6994;49.752;6.094;2023-04-28T00:53:50;7.25;;;6.40;;
13847;SDS011;6994;49.752;6.094;2023-04-28T00:56:17;7.20;;;5.18;;
13847;SDS011;6994;49.752;6.094;2023-04-28T00:58:44;5.12;;;4.62;;
13847;SDS011;6994;49.752;6.094;2023-04-28T01:01:11;7.68;;;5.00;;
13847;SDS011;6994;49.752;6.094;2023-04-28T01:03:39;5.20;;;4.70;;
13847;SDS011;6994;49.752;6.094;2023-04-28T01:06:07;5.32;;;4.43;;
13847;SDS011;6994;49.752;6.094;2023-04-28T01:08:35;5.80;;;4.43;;
13847;SDS011;6994;49.752;6.094;2023-04-28T01:11:03;6.05;;;4.72;;
13847;SDS011;6994;49.752;6.094;2023-04-28T01:13:30;6.20;;;3.95;;
13847;SDS011;6994;49.752;6.094;2023-04-28T01:15:58;6.75;;;4.53;;
13847;SDS011;6994;49.752;6.094;2023-04-28T01:18:26;4.93;;;4.53;;
13847;SDS011;6994;49.752;6.094;2023-04-28T01:20:54;9.30;;;4.85;;
13847;SDS011;6994;49.752;6.094;2023-04-28T01:23:22;7.78;;;4.90;;
13847;SDS011;6994;49.752;6.094;2023-04-28T01:25:49;8.75;;;4.90;;
13847;SDS011;6994;49.752;6.094;2023-04-28T01:28:16;5.12;;;4.60;;
13847;SDS011;6994;49.752;6.094;2023-04-28T01:30:43;7.60;;;4.45;;
13847;SDS011;6994;49.752;6.094;2023-04-28T01:33:10;5.40;;;4.72;;
13847;SDS011;6994;49.752;6.094;2023-04-28T01:35:38;6.18;;;4.93;;
13847;SDS011;6994;49.752;6.094;2023-04-28T01:38:05;9.27;;;7.03;;
13847;SDS011;6994;49.752;6.094;2023-04-28T01:40:32;5.80;;;5.30;;
13847;SDS011;6994;49.752;6.094;2023-04-28T01:42:59;7.10;;;5.03;;
13847;SDS011;6994;49.752;6.094;2023-04-28T01:45:26;5.87;;;5.30;;
13847;SDS011;6994;49.752;6.094;2023-04-28T01:47:54;5.82;;;4.85;;
13847;SDS011;6994;49.752;6.094;2023-04-28T01:50:22;5.72;;;5.22;;
13847;SDS011;6994;49.752;6.094;2023-04-28T01:52:50;6.03;;;5.07;;
13847;SDS011;6994;49.752;6.094;2023-04-28T01:55:18;5.37;;;4.78;;
13847;SDS011;6994;49.752;6.094;2023-04-28T01:57:45;6.80;;;5.65;;
13847;SDS011;6994;49.752;6.094;2023-04-28T02:00:12;5.28;;;4.68;;
13847;SDS011;6994;49.752;6.094;2023-04-28T02:02:39;7.60;;;6.82;;
13847;SDS011;6994;49.752;6.094;2023-04-28T02:05:06;6.75;;;5.43;;
13847;SDS011;6994;49.752;6.094;2023-04-28T02:07:34;7.72;;;6.93;;
13847;SDS011;6994;49.752;6.094;2023-04-28T02:10:02;7.18;;;6.47;;
13847;SDS011;6994;49.752;6.094;2023-04-28T02:12:30;7.82;;;5.55;;
13847;SDS011;6994;49.752;6.094;2023-04-28T02:14:58;11.18;;;6.95;;
13847;SDS011;6994;49.752;6.094;2023-04-28T02:17:25;7.25;;;6.53;;
13847;SDS011;6994;49.752;6.094;2023-04-28T02:19:55;8.85;;;6.65;;
13847;SDS011;6994;49.752;6.094;2023-04-28T02:22:22;10.07;;;8.73;;
13847;SDS011;6994;49.752;6.094;2023-04-28T02:24:49;6.78;;;5.90;;
13847;SDS011;6994;49.752;6.094;2023-04-28T02:27:17;6.32;;;5.37;;
13847;SDS011;6994;49.752;6.094;2023-04-28T02:29:44;7.93;;;7.12;;
13847;SDS011;6994;49.752;6.094;2023-04-28T02:32:11;7.70;;;6.10;;
13847;SDS011;6994;49.752;6.094;2023-04-28T02:34:38;5.35;;;4.75;;
13847;SDS011;6994;49.752;6.094;2023-04-28T02:37:05;7.45;;;6.75;;
13847;SDS011;6994;49.752;6.094;2023-04-28T02:39:33;5.90;;;5.37;;
13847;SDS011;6994;49.752;6.094;2023-04-28T02:42:01;8.23;;;5.75;;
13847;SDS011;6994;49.752;6.094;2023-04-28T02:44:29;7.45;;;5.35;;
13847;SDS011;6994;49.752;6.094;2023-04-28T02:46:56;6.55;;;4.97;;
13847;SDS011;6994;49.752;6.094;2023-04-28T02:49:24;6.97;;;4.87;;
13847;SDS011;6994;49.752;6.094;2023-04-28T02:51:52;6.10;;;5.50;;
13847;SDS011;6994;49.752;6.094;2023-04-28T02:54:20;10.43;;;5.87;;
13847;SDS011;6994;49.752;6.094;2023-04-28T02:56:48;6.22;;;5.62;;
13847;SDS011;6994;49.752;6.094;2023-04-28T02:59:15;8.52;;;5.43;;
13847;SDS011;6994;49.752;6.094;2023-04-28T03:01:42;6.40;;;5.80;;
13847;SDS011;6994;49.752;6.094;2023-04-28T03:04:09;7.37;;;5.55;;
13847;SDS011;6994;49.752;6.094;2023-04-28T03:06:36;8.38;;;7.25;;
13847;SDS011;6994;49.752;6.094;2023-04-28T03:09:04;9.02;;;6.65;;
13847;SDS011;6994;49.752;6.094;2023-04-28T03:11:31;6.60;;;5.78;;
13847;SDS011;6994;49.752;6.094;2023-04-28T03:13:58;7.53;;;6.07;;
13847;SDS011;6994;49.752;6.094;2023-04-28T03:16:25;8.07;;;6.30;;
13847;SDS011;6994;49.752;6.094;2023-04-28T03:18:53;8.50;;;6.37;;
13847;SDS011;6994;49.752;6.094;2023-04-28T03:21:21;9.48;;;5.97;;
13847;SDS011;6994;49.752;6.094;2023-04-28T03:23:48;6.45;;;5.85;;
13847;SDS011;6994;49.752;6.094;2023-04-28T03:26:16;7.10;;;6.20;;
13847;SDS011;6994;49.752;6.094;2023-04-28T03:28:43;10.57;;;8.50;;
13847;SDS011;6994;49.752;6.094;2023-04-28T03:31:10;8.77;;;7.43;;
13847;SDS011;6994;49.752;6.094;2023-04-28T03:33:37;9.18;;;7.75;;
13847;SDS011;6994;49.752;6.094;2023-04-28T03:36:04;9.60;;;7.72;;
13847;SDS011;6994;49.752;6.094;2023-04-28T03:38:32;8.95;;;7.50;;
13847;SDS011;6994;49.752;6.094;2023-04-28T03:41:00;10.80;;;7.80;;
13847;SDS011;6994;49.752;6.094;2023-04-28T03:43:28;14.52;;;7.60;;
13847;SDS011;6994;49.752;6.094;2023-04-28T03:45:55;15.00;;;7.75;;
13847;SDS011;6994;49.752;6.094;2023-04-28T03:48:22;10.00;;;6.70;;
13847;SDS011;6994;49.752;6.094;2023-04-28T03:50:49;8.63;;;6.37;;
13847;SDS011;6994;49.752;6.094;2023-04-28T03:53:16;8.65;;;6.72;;
13847;SDS011;6994;49.752;6.094;2023-04-28T03:55:44;8.48;;;6.82;;
13847;SDS011;6994;49.752;6.094;2023-04-28T03:58:11;9.13;;;7.53;;
13847;SDS011;6994;49.752;6.094;2023-04-28T04:00:38;12.20;;;10.95;;
13847;SDS011;6994;49.752;6.094;2023-04-28T04:03:06;10.75;;;8.18;;
13847;SDS011;6994;49.752;6.094;2023-04-28T04:05:34;13.52;;;9.82;;
13847;SDS011;6994;49.752;6.094;2023-04-28T04:08:01;13.85;;;9.50;;
13847;SDS011;6994;49.752;6.094;2023-04-28T04:10:28;13.88;;;9.38;;
13847;SDS011;6994;49.752;6.094;2023-04-28T04:12:56;12.90;;;10.05;;
13847;SDS011;6994;49.752;6.094;2023-04-28T04:15:23;13.90;;;10.35;;
13847;SDS011;6994;49.752;6.094;2023-04-28T04:17:50;14.77;;;10.60;;
13847;SDS011;6994;49.752;6.094;2023-04-28T04:20:17;10.20;;;8.82;;
13847;SDS011;6994;49.752;6.094;2023-04-28T04:22:44;11.70;;;10.05;;
13847;SDS011;6994;49.752;6.094;2023-04-28T04:25:12;14.32;;;10.00;;
13847;SDS011;6994;49.752;6.094;2023-04-28T04:27:39;14.05;;;11.07;;
13847;SDS011;6994;49.752;6.094;2023-04-28T04:30:06;15.98;;;10.80;;
13847;SDS011;6994;49.752;6.094;2023-04-28T04:32:33;12.75;;;10.55;;
13847;SDS011;6994;49.752;6.094;2023-04-28T04:35:01;18.92;;;10.60;;
13847;SDS011;6994;49.752;6.094;2023-04-28T04:37:28;15.57;;;11.07;;
13847;SDS011;6994;49.752;6.094;2023-04-28T04:39:55;13.75;;;11.52;;
13847;SDS011;6994;49.752;6.094;2023-04-28T04:42:22;15.15;;;11.15;;
13847;SDS011;6994;49.752;6.094;2023-04-28T04:44:49;15.40;;;11.77;;
13847;SDS011;6994;49.752;6.094;2023-04-28T04:47:17;14.85;;;11.23;;
13847;SDS011;6994;49.752;6.094;2023-04-28T04:49:44;19.37;;;12.65;;
13847;SDS011;6994;49.752;6.094;2023-04-28T04:52:11;16.58;;;11.68;;
13847;SDS011;6994;49.752;6.094;2023-04-28T04:54:38;16.77;;;11.88;;
13847;SDS011;6994;49.752;6.094;2023-04-28T04:57:05;18.17;;;12.88;;
13847;SDS011;6994;49.752;6.094;2023-04-28T04:59:33;23.70;;;18.20;;
13847;SDS011;6994;49.752;6.094;2023-04-28T05:02:01;19.40;;;15.13;;
13847;SDS011;6994;49.752;6.094;2023-04-28T05:04:28;23.42;;;14.18;;
13847;SDS011;6994;49.752;6.094;2023-04-28T05:06:55;19.23;;;14.02;;
13847;SDS011;6994;49.752;6.094;2023-04-28T05:09:22;21.98;;;12.10;;
13847;SDS011;6994;49.752;6.094;2023-04-28T05:11:49;21.73;;;14.63;;
13847;SDS011;6994;49.752;6.094;2023-04-28T05:14:17;18.58;;;13.05;;
13847;SDS011;6994;49.752;6.094;2023-04-28T05:16:45;14.52;;;12.95;;
13847;SDS011;6994;49.752;6.094;2023-04-28T05:19:12;23.10;;;18.90;;
13847;SDS011;6994;49.752;6.094;2023-04-28T05:21:39;18.85;;;14.85;;
13847;SDS011;6994;49.752;6.094;2023-04-28T05:24:06;20.05;;;13.48;;
13847;SDS011;6994;49.752;6.094;2023-04-28T05:26:34;17.27;;;12.50;;
13847;SDS011;6994;49.752;6.094;2023-04-28T05:29:01;21.15;;;13.30;;
13847;SDS011;6994;49.752;6.094;2023-04-28T05:31:28;18.48;;;11.68;;
13847;SDS011;6994;49.752;6.094;2023-04-28T05:33:55;15.57;;;12.30;;
13847;SDS011;6994;49.752;6.094;2023-04-28T05:36:22;15.52;;;11.98;;
13847;SDS011;6994;49.752;6.094;2023-04-28T05:38:50;14.82;;;11.90;;
13847;SDS011;6994;49.752;6.094;2023-04-28T05:41:17;12.32;;;11.00;;
13847;SDS011;6994;49.752;6.094;2023-04-28T05:43:44;16.52;;;13.18;;
13847;SDS011;6994;49.752;6.094;2023-04-28T05:46:11;17.62;;;12.77;;
13847;SDS011;6994;49.752;6.094;2023-04-28T05:48:38;18.60;;;16.58;;
13847;SDS011;6994;49.752;6.094;2023-04-28T05:51:06;17.77;;;14.85;;
13847;SDS011;6994;49.752;6.094;2023-04-28T05:53:33;18.70;;;13.62;;
13847;SDS011;6994;49.752;6.094;2023-04-28T05:56:00;14.75;;;13.15;;
13847;SDS011;6994;49.752;6.094;2023-04-28T05:58:27;15.85;;;13.40;;
13847;SDS011;6994;49.752;6.094;2023-04-28T06:00:54;21.25;;;17.90;;
13847;SDS011;6994;49.752;6.094;2023-04-28T06:03:22;18.67;;;13.85;;
13847;SDS011;6994;49.752;6.094;2023-04-28T06:05:49;17.33;;;13.05;;
13847;SDS011;6994;49.752;6.094;2023-04-28T06:08:16;16.08;;;13.62;;
13847;SDS011;6994;49.752;6.094;2023-04-28T06:10:43;14.98;;;13.48;;
13847;SDS011;6994;49.752;6.094;2023-04-28T06:13:11;18.20;;;16.05;;
13847;SDS011;6994;49.752;6.094;2023-04-28T06:15:38;17.17;;;13.13;;
13847;SDS011;6994;49.752;6.094;2023-04-28T06:18:05;16.87;;;13.85;;
13847;SDS011;6994;49.752;6.094;2023-04-28T06:20:32;14.45;;;11.93;;
13847;SDS011;6994;49.752;6.094;2023-04-28T06:22:59;17.25;;;15.55;;
13847;SDS011;6994;49.752;6.094;2023-04-28T06:25:27;14.27;;;12.37;;
13847;SDS011;6994;49.752;6.094;2023-04-28T06:27:54;11.38;;;10.20;;
13847;SDS011;6994;49.752;6.094;2023-04-28T06:30:21;10.45;;;9.45;;
13847;SDS011;6994;49.752;6.094;2023-04-28T06:32:48;10.85;;;9.75;;
13847;SDS011;6994;49.752;6.094;2023-04-28T06:35:15;11.50;;;9.05;;
13847;SDS011;6994;49.752;6.094;2023-04-28T06:37:43;9.13;;;8.13;;
13847;SDS011;6994;49.752;6.094;2023-04-28T06:40:10;8.82;;;7.53;;
13847;SDS011;6994;49.752;6.094;2023-04-28T06:42:37;9.38;;;8.32;;
13847;SDS011;6994;49.752;6.094;2023-04-28T06:45:04;9.93;;;7.65;;
13847;SDS011;6994;49.752;6.094;2023-04-28T06:47:31;8.23;;;7.43;;
13847;SDS011;6994;49.752;6.094;2023-04-28T06:49:59;8.68;;;7.80;;
13847;SDS011;6994;49.752;6.094;2023-04-28T06:52:26;8.82;;;8.00;;
13847;SDS011;6994;49.752;6.094;2023-04-28T06:54:53;9.80;;;7.10;;
13847;SDS011;6994;49.752;6.094;2023-04-28T06:57:21;8.13;;;7.40;;
13847;SDS011;6994;49.752;6.094;2023-04-28T06:59:49;8.25;;;7.55;;
13847;SDS011;6994;49.752;6.094;2023-04-28T07:02:16;7.30;;;6.60;;
13847;SDS011;6994;49.752;6.094;2023-04-28T07:04:43;6.30;;;5.70;;
13847;SDS011;6994;49.752;6.094;2023-04-28T07:07:11;8.13;;;7.32;;
13847;SDS011;6994;49.752;6.094;2023-04-28T07:09:38;7.80;;;7.00;;
13847;SDS011;6994;49.752;6.094;2023-04-28T07:12:05;7.85;;;7.10;;
13847;SDS011;6994;49.752;6.094;2023-04-28T07:14:32;7.32;;;6.72;;
13847;SDS011;6994;49.752;6.094;2023-04-28T07:16:59;6.28;;;5.68;;
13847;SDS011;6994;49.752;6.094;2023-04-28T07:19:27;9.10;;;6.15;;
13847;SDS011;6994;49.752;6.094;2023-04-28T07:21:54;9.02;;;6.35;;
13847;SDS011;6994;49.752;6.094;2023-04-28T07:24:21;7.32;;;5.15;;
13847;SDS011;6994;49.752;6.094;2023-04-28T07:26:49;5.72;;;5.22;;
13847;SDS011;6994;49.752;6.094;2023-04-28T07:29:17;6.12;;;5.40;;
13847;SDS011;6994;49.752;6.094;2023-04-28T07:31:43;5.35;;;4.95;;
13847;SDS011;6994;49.752;6.094;2023-04-28T07:34:11;5.53;;;5.03;;
13847;SDS011;6994;49.752;6.094;2023-04-28T07:36:38;5.50;;;4.95;;
13847;SDS011;6994;49.752;6.094;2023-04-28T07:39:05;6.35;;;4.43;;
13847;SDS011;6994;49.752;6.094;2023-04-28T07:41:36;6.40;;;5.32;;
13847;SDS011;6994;49.752;6.094;2023-04-28T07:44:03;5.82;;;5.22;;
13847;SDS011;6994;49.752;6.094;2023-04-28T07:46:29;4.37;;;4.05;;
13847;SDS011;6994;49.752;6.094;2023-04-28T07:48:57;4.78;;;4.07;;
13847;SDS011;6994;49.752;6.094;2023-04-28T07:51:24;3.90;;;3.60;;
13847;SDS011;6994;49.752;6.094;2023-04-28T07:53:52;4.03;;;2.85;;
13847;SDS011;6994;49.752;6.094;2023-04-28T07:56:20;4.78;;;4.28;;
13847;SDS011;6994;49.752;6.094;2023-04-28T07:58:48;4.03;;;3.70;;
13847;SDS011;6994;49.752;6.094;2023-04-28T08:01:16;4.40;;;3.87;;
13847;SDS011;6994;49.752;6.094;2023-04-28T08:03:44;5.05;;;3.20;;
13847;SDS011;6994;49.752;6.094;2023-04-28T08:06:12;3.85;;;3.47;;
13847;SDS011;6994;49.752;6.094;2023-04-28T08:08:39;3.20;;;2.97;;
13847;SDS011;6994;49.752;6.094;2023-04-28T08:11:06;4.07;;;3.42;;
13847;SDS011;6994;49.752;6.094;2023-04-28T08:13:33;3.55;;;3.25;;
13847;SDS011;6994;49.752;6.094;2023-04-28T08:16:00;3.95;;;3.55;;
13847;SDS011;6994;49.752;6.094;2023-04-28T08:18:28;3.90;;;3.55;;
13847;SDS011;6994;49.752;6.094;2023-04-28T08:20:55;3.22;;;2.92;;
13847;SDS011;6994;49.752;6.094;2023-04-28T08:23:22;3.20;;;2.90;;
13847;SDS011;6994;49.752;6.094;2023-04-28T08:25:49;4.40;;;4.00;;
13847;SDS011;6994;49.752;6.094;2023-04-28T08:28:16;3.80;;;3.28;;
13847;SDS011;6994;49.752;6.094;2023-04-28T08:30:44;4.62;;;3.25;;
13847;SDS011;6994;49.752;6.094;2023-04-28T08:33:12;5.15;;;2.95;;
13847;SDS011;6994;49.752;6.094;2023-04-28T08:35:40;3.35;;;3.05;;
13847;SDS011;6994;49.752;6.094;2023-04-28T08:38:08;3.53;;;3.22;;
13847;SDS011;6994;49.752;6.094;2023-04-28T08:40:35;3.45;;;3.15;;
13847;SDS011;6994;49.752;6.094;2023-04-28T08:43:02;3.60;;;3.30;;
13847;SDS011;6994;49.752;6.094;2023-04-28T08:45:29;5.75;;;4.40;;
13847;SDS011;6994;49.752;6.094;2023-04-28T08:47:57;4.18;;;3.87;;
13847;SDS011;6994;49.752;6.094;2023-04-28T08:50:24;5.32;;;4.10;;
13847;SDS011;6994;49.752;6.094;2023-04-28T08:52:51;4.43;;;3.72;;
13847;SDS011;6994;49.752;6.094;2023-04-28T08:55:18;4.75;;;4.30;;
13847;SDS011;6994;49.752;6.094;2023-04-28T08:57:48;5.97;;;4.22;;
13847;SDS011;6994;49.752;6.094;2023-04-28T09:00:15;5.07;;;3.72;;
13847;SDS011;6994;49.752;6.094;2023-04-28T09:02:42;3.78;;;3.22;;
13847;SDS011;6994;49.752;6.094;2023-04-28T09:05:10;3.45;;;3.15;;
13847;SDS011;6994;49.752;6.094;2023-04-28T09:07:37;3.25;;;2.80;;
13847;SDS011;6994;49.752;6.094;2023-04-28T09:12:43;2.87;;;2.42;;
13847;SDS011;6994;49.752;6.094;2023-04-28T09:15:10;2.65;;;2.10;;
13847;SDS011;6994;49.752;6.094;2023-04-28T09:17:47;2.15;;;1.60;;
13847;SDS011;6994;49.752;6.094;2023-04-28T09:20:24;3.65;;;0.85;;
13847;SDS011;6994;49.752;6.094;2023-04-28T09:22:47;0.40;;;0.40;;
13847;SDS011;6994;49.752;6.094;2023-04-28T09:25:14;0.93;;;0.40;;
13847;SDS011;6994;49.752;6.094;2023-04-28T09:27:41;0.85;;;0.30;;
13847;SDS011;6994;49.752;6.094;2023-04-28T09:30:08;2.30;;;0.50;;
13847;SDS011;6994;49.752;6.094;2023-04-28T09:32:36;1.42;;;0.50;;
13847;SDS011;6994;49.752;6.094;2023-04-28T09:35:03;0.85;;;0.30;;
13847;SDS011;6994;49.752;6.094;2023-04-28T09:37:32;0.35;;;0.10;;
13847;SDS011;6994;49.752;6.094;2023-04-28T09:40:08;0.40;;;0.30;;
13847;SDS011;6994;49.752;6.094;2023-04-28T09:42:39;0.77;;;0.30;;
13847;SDS011;6994;49.752;6.094;2023-04-28T09:45:06;0.50;;;0.45;;
13847;SDS011;6994;49.752;6.094;2023-04-28T09:47:34;1.42;;;0.40;;
13847;SDS011;6994;49.752;6.094;2023-04-28T09:50:04;1.50;;;0.40;;
13847;SDS011;6994;49.752;6.094;2023-04-28T09:52:32;1.85;;;0.50;;
13847;SDS011;6994;49.752;6.094;2023-04-28T09:54:57;0.57;;;0.40;;
13847;SDS011;6994;49.752;6.094;2023-04-28T09:57:25;1.62;;;0.40;;
13847;SDS011;6994;49.752;6.094;2023-04-28T09:59:52;0.50;;;0.32;;
13847;SDS011;6994;49.752;6.094;2023-04-28T10:02:19;1.60;;;0.30;;
13847;SDS011;6994;49.752;6.094;2023-04-28T10:04:48;2.35;;;0.50;;
13847;SDS011;6994;49.752;6.094;2023-04-28T10:07:15;1.50;;;0.40;;
13847;SDS011;6994;49.752;6.094;2023-04-28T10:09:45;1.35;;;0.60;;
13847;SDS011;6994;49.752;6.094;2023-04-28T10:12:15;2.00;;;0.65;;
13847;SDS011;6994;49.752;6.094;2023-04-28T10:14:44;1.02;;;0.60;;
13847;SDS011;6994;49.752;6.094;2023-04-28T10:17:12;2.80;;;0.80;;
13847;SDS011;6994;49.752;6.094;2023-04-28T10:19:39;0.40;;;0.32;;
13847;SDS011;6994;49.752;6.094;2023-04-28T10:25:11;3.47;;;0.60;;
13847;SDS011;6994;49.752;6.094;2023-04-28T10:27:35;1.08;;;0.55;;
13847;SDS011;6994;49.752;6.094;2023-04-28T10:30:12;1.40;;;0.50;;
13847;SDS011;6994;49.752;6.094;2023-04-28T10:32:42;1.65;;;0.22;;
13847;SDS011;6994;49.752;6.094;2023-04-28T10:40:33;1.43;;;0.60;;
13847;SDS011;6994;49.752;6.094;2023-04-28T10:43:02;1.27;;;0.43;;
13847;SDS011;6994;49.752;6.094;2023-04-28T10:48:14;4.00;;;0.40;;
13847;SDS011;6994;49.752;6.094;2023-04-28T10:54:17;2.12;;;0.47;;
13847;SDS011;6994;49.752;6.094;2023-04-28T10:56:16;3.35;;;0.50;;
13847;SDS011;6994;49.752;6.094;2023-04-28T10:58:46;1.02;;;0.40;;
13847;SDS011;6994;49.752;6.094;2023-04-28T11:01:35;2.62;;;0.25;;
13847;SDS011;6994;49.752;6.094;2023-04-28T11:03:57;0.55;;;0.32;;
13847;SDS011;6994;49.752;6.094;2023-04-28T11:06:34;1.12;;;0.25;;
13847;SDS011;6994;49.752;6.094;2023-04-28T11:16:59;0.30;;;0.30;;
13847;SDS011;6994;49.752;6.094;2023-04-28T11:19:30;0.70;;;0.15;;
13847;SDS011;6994;49.752;6.094;2023-04-28T11:21:56;1.15;;;0.60;;
13847;SDS011;6994;49.752;6.094;2023-04-28T11:24:23;1.05;;;0.10;;
13847;SDS011;6994;49.752;6.094;2023-04-28T11:26:53;0.73;;;0.40;;
13847;SDS011;6994;49.752;6.094;2023-04-28T11:32:00;1.05;;;0.32;;
13847;SDS011;6994;49.752;6.094;2023-04-28T11:34:27;0.30;;;0.30;;
13847;SDS011;6994;49.752;6.094;2023-04-28T11:36:54;0.95;;;0.30;;
13847;SDS011;6994;49.752;6.094;2023-04-28T11:39:28;0.50;;;0.40;;
13847;SDS011;6994;49.752;6.094;2023-04-28T11:41:55;4.35;;;0.30;;
13847;SDS011;6994;49.752;6.094;2023-04-28T11:44:26;0.20;;;0.20;;
13847;SDS011;6994;49.752;6.094;2023-04-28T11:46:56;0.40;;;0.40;;
13847;SDS011;6994;49.752;6.094;2023-04-28T11:49:28;1.15;;;0.40;;
13847;SDS011;6994;49.752;6.094;2023-04-28T11:51:55;1.10;;;0.30;;
13847;SDS011;6994;49.752;6.094;2023-04-28T11:54:31;0.30;;;0.30;;
13847;SDS011;6994;49.752;6.094;2023-04-28T11:56:58;1.40;;;0.32;;
13847;SDS011;6994;49.752;6.094;2023-04-28T11:59:26;0.47;;;0.20;;
13847;SDS011;6994;49.752;6.094;2023-04-28T12:01:59;2.08;;;0.55;;
13847;SDS011;6994;49.752;6.094;2023-04-28T12:04:29;0.30;;;0.30;;
13847;SDS011;6994;49.752;6.094;2023-04-28T12:09:26;0.65;;;0.40;;
13847;SDS011;6994;49.752;6.094;2023-04-28T12:11:54;2.53;;;0.45;;
13847;SDS011;6994;49.752;6.094;2023-04-28T12:14:20;2.10;;;0.20;;
13847;SDS011;6994;49.752;6.094;2023-04-28T12:16:48;2.15;;;0.30;;
13847;SDS011;6994;49.752;6.094;2023-04-28T12:19:15;2.27;;;0.47;;
13847;SDS011;6994;49.752;6.094;2023-04-28T12:21:42;0.62;;;0.37;;
13847;SDS011;6994;49.752;6.094;2023-04-28T12:24:19;0.85;;;0.32;;
13847;SDS011;6994;49.752;6.094;2023-04-28T12:26:43;1.05;;;0.32;;
13847;SDS011;6994;49.752;6.094;2023-04-28T12:29:33;0.28;;;0.22;;
13847;SDS011;6994;49.752;6.094;2023-04-28T12:31:47;0.32;;;0.30;;
13847;SDS011;6994;49.752;6.094;2023-04-28T12:34:13;1.30;;;0.40;;
13847;SDS011;6994;49.752;6.094;2023-04-28T12:36:40;0.45;;;0.30;;
13847;SDS011;6994;49.752;6.094;2023-04-28T12:39:11;1.85;;;0.30;;
13847;SDS011;6994;49.752;6.094;2023-04-28T12:41:35;0.45;;;0.40;;
13847;SDS011;6994;49.752;6.094;2023-04-28T12:44:03;0.65;;;0.35;;
13847;SDS011;6994;49.752;6.094;2023-04-28T12:46:31;1.20;;;0.50;;
13847;SDS011;6994;49.752;6.094;2023-04-28T12:48:59;1.42;;;0.70;;
13847;SDS011;6994;49.752;6.094;2023-04-28T12:51:27;0.77;;;0.30;;
13847;SDS011;6994;49.752;6.094;2023-04-28T12:53:54;2.50;;;0.37;;
13847;SDS011;6994;49.752;6.094;2023-04-28T12:56:21;3.95;;;0.70;;
13847;SDS011;6994;49.752;6.094;2023-04-28T12:58:48;0.30;;;0.30;;
13847;SDS011;6994;49.752;6.094;2023-04-28T13:01:16;1.02;;;0.45;;
13847;SDS011;6994;49.752;6.094;2023-04-28T13:03:43;0.70;;;0.30;;
13847;SDS011;6994;49.752;6.094;2023-04-28T13:06:10;1.27;;;0.45;;
13847;SDS011;6994;49.752;6.094;2023-04-28T13:08:37;0.50;;;0.45;;
13847;SDS011;6994;49.752;6.094;2023-04-28T13:11:05;1.65;;;0.82;;
13847;SDS011;6994;49.752;6.094;2023-04-28T13:13:32;0.88;;;0.50;;
13847;SDS011;6994;49.752;6.094;2023-04-28T13:15:59;0.30;;;0.30;;
13847;SDS011;6994;49.752;6.094;2023-04-28T13:18:26;0.73;;;0.40;;
13847;SDS011;6994;49.752;6.094;2023-04-28T13:20:54;2.58;;;0.57;;
13847;SDS011;6994;49.752;6.094;2023-04-28T13:23:22;1.10;;;0.40;;
13847;SDS011;6994;49.752;6.094;2023-04-28T13:25:49;0.60;;;0.60;;
13847;SDS011;6994;49.752;6.094;2023-04-28T13:28:16;0.45;;;0.43;;
13847;SDS011;6994;49.752;6.094;2023-04-28T13:30:44;0.57;;;0.57;;
13847;SDS011;6994;49.752;6.094;2023-04-28T13:33:11;1.33;;;0.60;;
13847;SDS011;6994;49.752;6.094;2023-04-28T13:35:38;0.82;;;0.40;;
13847;SDS011;6994;49.752;6.094;2023-04-28T13:38:05;0.40;;;0.40;;
13847;SDS011;6994;49.752;6.094;2023-04-28T13:40:32;0.40;;;0.40;;
13847;SDS011;6994;49.752;6.094;2023-04-28T13:43:00;1.52;;;0.45;;
13847;SDS011;6994;49.752;6.094;2023-04-28T13:45:27;1.20;;;0.40;;
13847;SDS011;6994;49.752;6.094;2023-04-28T13:47:55;1.52;;;0.70;;
13847;SDS011;6994;49.752;6.094;2023-04-28T13:50:22;1.40;;;0.60;;
13847;SDS011;6994;49.752;6.094;2023-04-28T13:52:49;0.40;;;0.40;;
13847;SDS011;6994;49.752;6.094;2023-04-28T13:55:16;0.80;;;0.43;;
13847;SDS011;6994;49.752;6.094;2023-04-28T13:57:44;1.95;;;0.52;;
13847;SDS011;6994;49.752;6.094;2023-04-28T14:00:11;1.67;;;0.70;;
13847;SDS011;6994;49.752;6.094;2023-04-28T14:02:38;1.10;;;0.70;;
13847;SDS011;6994;49.752;6.094;2023-04-28T14:05:05;0.62;;;0.57;;
13847;SDS011;6994;49.752;6.094;2023-04-28T14:07:32;1.80;;;0.60;;
13847;SDS011;6994;49.752;6.094;2023-04-28T14:10:00;1.50;;;0.60;;
13847;SDS011;6994;49.752;6.094;2023-04-28T14:12:27;2.05;;;0.68;;
13847;SDS011;6994;49.752;6.094;2023-04-28T14:14:54;3.10;;;0.60;;
13847;SDS011;6994;49.752;6.094;2023-04-28T14:17:21;1.85;;;0.57;;
13847;SDS011;6994;49.752;6.094;2023-04-28T14:19:48;0.50;;;0.50;;
13847;SDS011;6994;49.752;6.094;2023-04-28T14:22:16;0.82;;;0.82;;
13847;SDS011;6994;49.752;6.094;2023-04-28T14:24:43;0.68;;;0.57;;
13847;SDS011;6994;49.752;6.094;2023-04-28T14:27:11;2.90;;;0.60;;
13847;SDS011;6994;49.752;6.094;2023-04-28T14:29:37;0.95;;;0.65;;
13847;SDS011;6994;49.752;6.094;2023-04-28T14:32:04;0.62;;;0.60;;
13847;SDS011;6994;49.752;6.094;2023-04-28T14:34:32;1.37;;;0.47;;
13847;SDS011;6994;49.752;6.094;2023-04-28T14:36:59;0.60;;;0.60;;
13847;SDS011;6994;49.752;6.094;2023-04-28T14:39:26;2.75;;;0.60;;
13847;SDS011;6994;49.752;6.094;2023-04-28T14:41:54;1.70;;;0.52;;
13847;SDS011;6994;49.752;6.094;2023-04-28T14:44:22;0.98;;;0.68;;
13847;SDS011;6994;49.752;6.094;2023-04-28T14:46:49;1.60;;;0.60;;
13847;SDS011;6994;49.752;6.094;2023-04-28T14:49:16;1.10;;;0.52;;
13847;SDS011;6994;49.752;6.094;2023-04-28T14:51:44;1.23;;;0.80;;
13847;SDS011;6994;49.752;6.094;2023-04-28T14:54:11;0.52;;;0.52;;
13847;SDS011;6994;49.752;6.094;2023-04-28T14:56:38;2.50;;;0.60;;
13847;SDS011;6994;49.752;6.094;2023-04-28T14:59:05;0.95;;;0.60;;
13847;SDS011;6994;49.752;6.094;2023-04-28T15:01:32;3.12;;;0.70;;
13847;SDS011;6994;49.752;6.094;2023-04-28T15:04:00;0.57;;;0.55;;
13847;SDS011;6994;49.752;6.094;2023-04-28T15:06:27;1.12;;;0.70;;
13847;SDS011;6994;49.752;6.094;2023-04-28T15:08:55;1.30;;;0.62;;
13847;SDS011;6994;49.752;6.094;2023-04-28T15:11:23;0.68;;;0.68;;
13847;SDS011;6994;49.752;6.094;2023-04-28T15:13:51;1.50;;;1.12;;
13847;SDS011;6994;49.752;6.094;2023-04-28T15:16:19;1.55;;;0.93;;
13847;SDS011;6994;49.752;6.094;2023-04-28T15:18:46;0.80;;;0.60;;
13847;SDS011;6994;49.752;6.094;2023-04-28T15:21:13;1.62;;;0.57;;
13847;SDS011;6994;49.752;6.094;2023-04-28T15:23:40;3.45;;;0.57;;
13847;SDS011;6994;49.752;6.094;2023-04-28T15:26:08;2.40;;;0.50;;
13847;SDS011;6994;49.752;6.094;2023-04-28T15:28:35;0.88;;;0.82;;